Time;durP1;ratioP1;P1;durP2;ratioP2;P2;SDS_P1;SDS_P2;PMS_P1;PMS_P2;Temp;Humidity;BMP_temperature;BMP_pressure;BME280_temperature;BME280_humidity;BME280_pressure;Samples;Min_cycle;Max_cycle;Signal;HPM_P1;HPM_P2
2023/07/28 00:02:17;;;;;;;0.20;0.20;;;;;;;19.61;100.00;97731.44;5030240;28;20049;-82
2023/07/28 00:04:44;;;;;;;0.20;0.20;;;;;;;19.61;100.00;97741.59;5031462;28;20057;-81
2023/07/28 00:07:10;;;;;;;0.20;0.20;;;;;;;19.61;100.00;97761.53;5031461;28;20055;-81
2023/07/28 00:09:37;;;;;;;0.20;0.20;;;;;;;19.63;100.00;97755.75;5031324;28;20419;-80
2023/07/28 00:12:05;;;;;;;0.20;0.20;;;;;;;19.61;100.00;97753.34;5031155;28;20049;-80
2023/07/28 00:14:32;;;;;;;0.20;0.20;;;;;;;19.57;100.00;97763.38;5031255;28;20049;-81
2023/07/28 00:16:59;;;;;;;0.20;0.20;;;;;;;19.58;100.00;97780.59;5029911;28;20077;-82
2023/07/28 00:19:26;;;;;;;0.20;0.20;;;;;;;19.52;100.00;97782.69;5029885;28;20397;-80
2023/07/28 00:21:55;;;;;;;0.20;0.20;;;;;;;19.51;100.00;97783.84;5029468;28;20099;-80
2023/07/28 00:24:22;;;;;;;0.25;0.25;;;;;;;19.49;100.00;97789.63;5030040;28;20068;-80
2023/07/28 00:26:49;;;;;;;0.30;0.30;;;;;;;19.47;100.00;97780.97;5030807;28;20136;-79
2023/07/28 00:29:16;;;;;;;0.30;0.30;;;;;;;19.50;100.00;97795.94;5029762;28;20050;-80
2023/07/28 00:31:43;;;;;;;0.20;0.20;;;;;;;19.54;100.00;97785.09;5029129;28;20049;-80
2023/07/28 00:34:12;;;;;;;0.20;0.20;;;;;;;19.56;100.00;97786.38;5030790;28;20073;-79
2023/07/28 00:36:41;;;;;;;0.20;0.20;;;;;;;19.48;100.00;97768.88;5029666;28;20592;-81
2023/07/28 00:39:08;;;;;;;0.20;0.20;;;;;;;19.44;100.00;97765.22;5029353;28;20041;-79
2023/07/28 00:41:35;;;;;;;0.20;0.20;;;;;;;19.41;100.00;97756.88;5030794;28;20620;-80
2023/07/28 00:44:02;;;;;;;0.20;0.20;;;;;;;19.35;100.00;97758.22;5029316;28;20561;-80
2023/07/28 00:46:30;;;;;;;0.20;0.20;;;;;;;19.28;100.00;97751.31;5029576;28;20519;-80
2023/07/28 00:48:57;;;;;;;0.30;0.30;;;;;;;19.28;100.00;97765.00;5030554;28;20095;-80
2023/07/28 00:51:24;;;;;;;0.30;0.30;;;;;;;19.26;100.00;97758.25;5030666;28;20520;-81
2023/07/28 00:53:53;;;;;;;0.20;0.20;;;;;;;19.23;100.00;97746.03;5030421;28;20136;-80
2023/07/28 00:56:20;;;;;;;0.20;0.20;;;;;;;19.22;100.00;97747.19;5029419;28;20049;-80
2023/07/28 00:58:47;;;;;;;0.30;0.30;;;;;;;19.17;100.00;97750.13;5029260;28;20068;-81
2023/07/28 01:01:14;;;;;;;0.30;0.30;;;;;;;19.17;100.00;97768.47;5029561;28;20092;-81
2023/07/28 01:03:41;;;;;;;0.20;0.20;;;;;;;19.10;100.00;97758.03;5029651;28;20049;-80
2023/07/28 01:06:26;;;;;;;0.30;0.30;;;;;;;19.05;100.00;97742.63;5012783;28;20124;-81
2023/07/28 01:09:02;;;;;;;0.30;0.30;;;;;;;18.98;100.00;97747.81;5012838;28;20528;-81
2023/07/28 01:11:29;;;;;;;0.30;0.30;;;;;;;18.92;100.00;97743.66;5030315;28;20057;-80
2023/07/28 01:13:56;;;;;;;0.20;0.20;;;;;;;18.91;100.00;97733.84;5030286;28;20056;-80
2023/07/28 01:16:24;;;;;;;0.30;0.30;;;;;;;18.90;100.00;97724.06;5036650;28;20049;-80
2023/07/28 01:18:51;;;;;;;0.30;0.30;;;;;;;18.90;100.00;97726.00;5040091;28;20048;-80
2023/07/28 01:21:25;;;;;;;0.20;0.20;;;;;;;18.94;100.00;97725.00;5045870;28;20048;-81
2023/07/28 01:24:04;;;;;;;0.30;0.30;;;;;;;18.96;100.00;97721.94;5048868;28;20462;-80
2023/07/28 01:26:35;;;;;;;0.30;0.30;;;;;;;18.97;100.00;97718.88;5032599;28;20045;-81
2023/07/28 01:29:06;;;;;;;0.20;0.20;;;;;;;18.97;100.00;97721.59;5049686;28;20045;-81
2023/07/28 01:31:33;;;;;;;0.30;0.30;;;;;;;18.97;100.00;97718.88;5050091;28;20657;-80
2023/07/28 01:34:00;;;;;;;0.30;0.30;;;;;;;18.96;100.00;97711.78;5049676;28;20072;-80
2023/07/28 01:36:27;;;;;;;0.30;0.30;;;;;;;19.00;100.00;97715.47;5050184;28;20122;-78
2023/07/28 01:38:54;;;;;;;0.30;0.30;;;;;;;19.01;100.00;97706.13;5048643;28;20041;-80
2023/07/28 01:41:21;;;;;;;0.22;0.22;;;;;;;19.00;100.00;97704.53;5048855;28;20069;-80
2023/07/28 01:43:48;;;;;;;0.20;0.20;;;;;;;19.05;100.00;97703.56;5035209;28;20504;-79
2023/07/28 01:46:15;;;;;;;0.28;0.28;;;;;;;19.05;100.00;97706.28;5032789;28;20507;-79
2023/07/28 01:48:42;;;;;;;0.30;0.30;;;;;;;19.07;100.00;97698.56;5035981;28;20056;-79
2023/07/28 01:51:09;;;;;;;0.20;0.20;;;;;;;19.09;100.00;97711.88;5036515;28;20053;-80
2023/07/28 01:53:36;;;;;;;0.20;0.20;;;;;;;19.09;100.00;97714.63;5032817;28;20129;-80
2023/07/28 01:56:03;;;;;;;0.20;0.20;;;;;;;19.07;100.00;97714.97;5034953;28;20099;-81
2023/07/28 01:58:31;;;;;;;0.30;0.30;;;;;;;19.02;100.00;97713.22;5025031;28;20045;-79
2023/07/28 02:00:58;;;;;;;0.30;0.30;;;;;;;19.00;100.00;97712.75;5043651;28;20135;-80
2023/07/28 02:03:25;;;;;;;0.22;0.22;;;;;;;19.01;100.00;97705.34;5053959;28;20041;-78
2023/07/28 02:05:52;;;;;;;0.30;0.30;;;;;;;19.01;100.00;97697.13;5052078;28;20056;-80
2023/07/28 02:08:20;;;;;;;0.20;0.20;;;;;;;18.99;100.00;97694.75;5053456;28;20511;-80
2023/07/28 02:10:47;;;;;;;0.20;0.20;;;;;;;19.00;100.00;97699.06;5052126;28;20057;-79
2023/07/28 02:13:14;;;;;;;0.30;0.30;;;;;;;18.99;100.00;97681.06;5053312;28;20045;-80
2023/07/28 02:15:41;;;;;;;0.25;0.25;;;;;;;19.00;100.00;97699.06;5053367;28;20502;-80
2023/07/28 02:18:08;;;;;;;0.30;0.30;;;;;;;19.00;100.00;97712.75;5051938;28;20131;-78
2023/07/28 02:20:35;;;;;;;0.22;0.22;;;;;;;19.01;100.00;97710.81;5053317;28;20460;-80
2023/07/28 02:23:03;;;;;;;0.30;0.30;;;;;;;19.00;100.00;97710.00;5052929;28;20111;-80
2023/07/28 02:25:30;;;;;;;0.20;0.20;;;;;;;19.01;100.00;97714.34;5052968;28;20049;-80
2023/07/28 02:27:57;;;;;;;0.20;0.20;;;;;;;19.01;100.00;97717.06;5052860;28;20056;-80
2023/07/28 02:30:24;;;;;;;0.28;0.28;;;;;;;19.02;100.00;97712.41;5053378;28;20053;-79
2023/07/28 02:32:51;;;;;;;0.20;0.20;;;;;;;19.02;100.00;97715.16;5052861;28;20041;-80
2023/07/28 02:35:18;;;;;;;0.30;0.30;;;;;;;19.01;100.00;97725.25;5051858;28;20056;-82
2023/07/28 02:37:47;;;;;;;0.30;0.30;;;;;;;19.02;100.00;97756.97;5051842;28;20140;-80
2023/07/28 02:40:15;;;;;;;0.30;0.30;;;;;;;19.03;100.00;97757.75;5035123;28;20045;-80
2023/07/28 02:42:42;;;;;;;0.30;0.30;;;;;;;19.04;100.00;97748.41;5051589;28;20044;-80
2023/07/28 02:45:09;;;;;;;0.22;0.22;;;;;;;19.05;100.00;97736.34;5052894;28;20091;-81
2023/07/28 02:47:37;;;;;;;0.30;0.30;;;;;;;19.04;100.00;97745.69;5052096;28;20052;-80
2023/07/28 02:50:05;;;;;;;0.30;0.30;;;;;;;19.12;100.00;97750.31;5052492;28;20044;-80
2023/07/28 02:52:32;;;;;;;0.30;0.30;;;;;;;19.16;100.00;97740.28;5052753;28;20087;-80
2023/07/28 02:54:59;;;;;;;0.30;0.30;;;;;;;19.21;100.00;97731.91;5035354;28;20462;-81
2023/07/28 02:57:30;;;;;;;0.30;0.30;;;;;;;19.24;100.00;97722.22;5015651;28;20084;-81
2023/07/28 02:59:58;;;;;;;0.20;0.20;;;;;;;19.29;100.00;97711.09;5031491;28;20053;-80
2023/07/28 03:02:25;;;;;;;0.30;0.30;;;;;;;19.33;100.00;97733.91;5033401;28;20111;-80
2023/07/28 03:04:54;;;;;;;0.20;0.20;;;;;;;19.40;100.00;97758.81;5031111;28;20049;-77
2023/07/28 03:07:47;;;;;;;0.20;0.20;;;;;;;19.41;100.00;97767.81;5031372;28;20683;-80
2023/07/28 03:10:16;;;;;;;0.30;0.30;;;;;;;19.48;100.00;97793.50;5032181;28;20152;-79
2023/07/28 03:12:44;;;;;;;0.30;0.30;;;;;;;19.51;100.00;97786.56;5032272;28;20045;-79
2023/07/28 03:15:11;;;;;;;0.30;0.30;;;;;;;19.53;100.00;97746.00;5031900;28;20119;-78
2023/07/28 03:17:38;;;;;;;0.30;0.30;;;;;;;19.58;100.00;97753.22;5017083;28;20041;-78
2023/07/28 03:20:06;;;;;;;0.30;0.30;;;;;;;19.58;100.00;97754.00;5030755;28;20053;-77
2023/07/28 03:22:33;;;;;;;0.30;0.30;;;;;;;19.58;100.00;97784.13;5030992;28;20091;-78
2023/07/28 03:25:00;;;;;;;0.30;0.30;;;;;;;19.56;100.00;97788.31;5024827;28;20049;-79
2023/07/28 03:27:29;;;;;;;0.30;0.30;;;;;;;19.51;100.00;97792.03;5032329;28;20053;-79
2023/07/28 03:29:56;;;;;;;0.30;0.30;;;;;;;19.47;100.00;97819.28;5047399;28;20045;-79
2023/07/28 03:32:23;;;;;;;0.30;0.30;;;;;;;19.40;100.00;97832.69;5047416;28;20047;-79
2023/07/28 03:34:51;;;;;;;0.30;0.30;;;;;;;19.34;100.00;97863.28;5031644;28;20076;-78
2023/07/28 03:37:19;;;;;;;0.30;0.30;;;;;;;19.28;100.00;97896.28;5047187;28;20049;-80
2023/07/28 03:39:46;;;;;;;0.30;0.30;;;;;;;19.15;100.00;97941.06;5031945;28;20053;-81
2023/07/28 03:42:15;;;;;;;0.30;0.30;;;;;;;19.05;100.00;97994.16;5030455;28;20049;-80
2023/07/28 03:44:42;;;;;;;0.30;0.30;;;;;;;18.80;100.00;97997.75;5047334;28;20451;-81
2023/07/28 03:47:09;;;;;;;0.30;0.30;;;;;;;18.56;100.00;97941.66;5031161;28;20049;-81
2023/07/28 03:49:36;;;;;;;0.30;0.30;;;;;;;18.41;100.00;97923.00;5031124;28;20056;-81
2023/07/28 03:52:03;;;;;;;0.30;0.30;;;;;;;18.33;100.00;97932.00;5032129;28;20095;-80
2023/07/28 03:54:30;;;;;;;0.30;0.30;;;;;;;18.29;100.00;97901.00;5032681;28;20041;-81
2023/07/28 03:56:57;;;;;;;0.30;0.30;;;;;;;18.24;100.00;97860.22;5029969;28;20057;-81
2023/07/28 03:59:24;;;;;;;0.30;0.30;;;;;;;18.22;100.00;97796.91;5031413;28;20072;-83
2023/07/28 04:01:52;;;;;;;0.30;0.30;;;;;;;18.21;100.00;97733.31;5031385;28;20153;-82
2023/07/28 04:04:19;;;;;;;0.30;0.30;;;;;;;18.22;100.00;97691.22;5032093;28;20046;-82
2023/07/28 04:06:50;;;;;;;0.30;0.30;;;;;;;18.24;100.00;97652.69;5031004;28;20512;-81
2023/07/28 04:09:17;;;;;;;0.30;0.30;;;;;;;18.27;100.00;97620.03;5014225;28;20496;-81
2023/07/28 04:11:44;;;;;;;0.30;0.30;;;;;;;18.33;100.00;97604.25;5029905;28;20405;-82
2023/07/28 04:14:12;;;;;;;0.30;0.30;;;;;;;18.34;100.00;97586.78;5013540;28;20053;-82
2023/07/28 04:16:39;;;;;;;0.30;0.30;;;;;;;18.30;100.00;97583.09;5046633;28;20045;-82
2023/07/28 04:19:06;;;;;;;0.30;0.30;;;;;;;18.38;100.00;97598.63;5035298;28;20136;-82
2023/07/28 04:21:33;;;;;;;0.30;0.30;;;;;;;18.38;100.00;97601.34;5048058;28;20041;-82
2023/07/28 04:24:00;;;;;;;0.30;0.30;;;;;;;18.35;100.00;97604.75;5013302;28;20096;-80
2023/07/28 04:26:28;;;;;;;0.30;0.30;;;;;;;18.33;100.00;97596.06;5046444;28;20552;-82
2023/07/28 04:28:59;;;;;;;0.30;0.30;;;;;;;18.32;100.00;97613.59;5046139;28;20046;-82
2023/07/28 04:31:27;;;;;;;0.30;0.30;;;;;;;18.36;100.00;97634.47;5029949;28;20123;-82
2023/07/28 04:34:03;;;;;;;0.30;0.30;;;;;;;18.41;100.00;97634.28;5029470;28;20046;-82
2023/07/28 04:36:56;;;;;;;0.30;0.30;;;;;;;18.46;100.00;97633.28;5037046;28;20053;-80
2023/07/28 04:39:27;;;;;;;0.30;0.30;;;;;;;18.49;100.00;97653.69;5029515;28;20049;-82
2023/07/28 04:41:54;;;;;;;0.30;0.30;;;;;;;18.48;100.00;97654.81;5030447;28;20049;-82
2023/07/28 04:44:21;;;;;;;0.30;0.30;;;;;;;18.52;100.00;97653.03;5046165;28;20052;-81
2023/07/28 04:46:54;;;;;;;0.30;0.30;;;;;;;18.60;100.00;97652.97;5013980;28;20084;-80
2023/07/28 04:49:21;;;;;;;0.30;0.30;;;;;;;18.69;100.00;97665.81;5029313;28;20095;-81
2023/07/28 04:52:08;;;;;;;0.30;0.30;;;;;;;18.81;100.00;97676.84;5030622;28;20055;-82
2023/07/28 04:54:53;;;;;;;0.30;0.30;;;;;;;18.95;100.00;97668.41;5030483;28;20050;-81
2023/07/28 04:57:20;;;;;;;0.30;0.30;;;;;;;19.00;100.00;97690.06;5046061;28;20085;-82
2023/07/28 04:59:47;;;;;;;0.30;0.30;;;;;;;19.08;100.00;97693.88;5045736;28;20051;-81
2023/07/28 05:02:15;;;;;;;0.30;0.30;;;;;;;19.07;100.00;97708.69;5030226;28;20132;-81
2023/07/28 05:04:42;;;;;;;0.30;0.30;;;;;;;19.13;100.00;97705.41;5045913;28;20053;-81
2023/07/28 05:07:09;;;;;;;0.30;0.30;;;;;;;19.18;100.00;97721.63;5045723;28;20108;-81
2023/07/28 05:09:37;;;;;;;0.30;0.30;;;;;;;19.19;100.00;97727.88;5030711;28;20133;-82
2023/07/28 05:12:04;;;;;;;0.30;0.30;;;;;;;19.07;100.00;97725.09;5045345;28;20057;-81
2023/07/28 05:14:38;;;;;;;0.30;0.30;;;;;;;18.98;100.00;97730.59;5037518;28;20054;-82
2023/07/28 05:17:09;;;;;;;0.30;0.30;;;;;;;19.00;100.00;97729.13;4814127;28;10001350;-82
2023/07/28 05:19:56;;;;;;;0.30;0.30;;;;;;;19.00;100.00;97726.41;5037488;28;20347;-83
2023/07/28 05:22:59;;;;;;;0.30;0.30;;;;;;;19.11;100.00;97723.28;5026263;28;20054;-82
2023/07/28 05:25:29;;;;;;;0.40;0.40;;;;;;;19.24;100.00;97716.75;5025461;28;20084;-82
2023/07/28 05:27:57;;;;;;;0.30;0.30;;;;;;;19.43;100.00;97714.38;5008316;28;20049;-83
2023/07/28 05:30:25;;;;;;;0.30;0.30;;;;;;;19.56;100.00;97725.38;5019868;28;20062;-81
2023/07/28 05:32:57;;;;;;;0.30;0.30;;;;;;;19.59;100.00;97724.72;5007321;28;20061;-84
2023/07/28 05:35:34;;;;;;;0.30;0.30;;;;;;;19.72;100.00;97717.38;5004407;28;20058;-81
2023/07/28 05:38:01;;;;;;;0.30;0.30;;;;;;;19.77;100.00;97715.22;5025486;28;20120;-82
2023/07/28 05:40:28;;;;;;;0.30;0.30;;;;;;;19.82;100.00;97720.50;5028408;28;20050;-81
2023/07/28 05:42:56;;;;;;;0.30;0.30;;;;;;;19.71;100.00;97719.31;5006176;28;20623;-79
2023/07/28 05:45:26;;;;;;;0.30;0.30;;;;;;;19.76;100.00;97726.53;5017162;28;20123;-80
2023/07/28 05:47:53;;;;;;;0.30;0.30;;;;;;;19.71;100.00;97724.78;4998838;28;20052;-81
2023/07/28 05:50:20;;;;;;;0.30;0.30;;;;;;;19.72;100.00;97723.66;5002101;28;20053;-81
2023/07/28 05:52:47;;;;;;;0.30;0.30;;;;;;;19.79;100.00;97725.84;5017018;28;20096;-82
2023/07/28 05:55:14;;;;;;;0.30;0.30;;;;;;;19.87;100.00;97723.03;5009282;28;20160;-81
2023/07/28 05:57:42;;;;;;;0.30;0.30;;;;;;;19.81;100.00;97749.03;5025644;28;20103;-83
2023/07/28 06:00:11;;;;;;;0.30;0.30;;;;;;;19.67;100.00;97756.69;5008177;28;20049;-82
2023/07/28 06:02:41;;;;;;;0.30;0.30;;;;;;;19.56;100.00;97761.75;5035339;28;20072;-82
2023/07/28 06:05:16;;;;;;;0.30;0.30;;;;;;;19.38;100.00;97765.75;5037350;28;20072;-83
2023/07/28 06:07:44;;;;;;;0.30;0.30;;;;;;;19.32;100.00;97724.13;5038364;28;20122;-83
2023/07/28 06:10:11;;;;;;;0.30;0.30;;;;;;;19.49;100.00;97731.38;5030440;28;20053;-82
2023/07/28 06:12:39;;;;;;;0.30;0.30;;;;;;;19.66;100.00;97722.22;5039050;28;20150;-83
2023/07/28 06:15:07;;;;;;;0.30;0.30;;;;;;;19.82;100.00;97730.66;5034514;28;20056;-83
2023/07/28 06:17:36;;;;;;;0.30;0.30;;;;;;;20.07;100.00;97735.06;5021633;28;20128;-82
2023/07/28 06:20:07;;;;;;;0.20;0.20;;;;;;;19.97;100.00;97751.94;5032583;28;20041;-82
2023/07/28 06:22:34;;;;;;;0.30;0.30;;;;;;;19.80;100.00;97771.25;5033294;28;20618;-81
2023/07/28 06:25:02;;;;;;;0.30;0.30;;;;;;;19.53;100.00;97799.94;5019623;28;20099;-82
2023/07/28 06:27:30;;;;;;;0.20;0.20;;;;;;;19.46;100.00;97831.34;5029419;28;20858;-84
2023/07/28 06:29:57;;;;;;;0.28;0.28;;;;;;;19.31;100.00;97853.78;5037881;28;20502;-83
2023/07/28 06:32:24;;;;;;;0.25;0.25;;;;;;;19.04;100.00;97894.16;5033313;28;20041;-84
2023/07/28 06:34:51;;;;;;;0.20;0.20;;;;;;;18.79;100.00;97862.22;5035026;28;20157;-83
2023/07/28 06:37:20;;;;;;;0.30;0.30;;;;;;;18.59;100.00;97951.13;5005479;28;20049;-83
2023/07/28 06:39:47;;;;;;;0.30;0.30;;;;;;;18.45;100.00;98022.28;5053158;28;20124;-84
2023/07/28 06:42:16;;;;;;;0.30;0.30;;;;;;;18.31;100.00;98017.00;5048299;28;20049;-84
2023/07/28 06:44:43;;;;;;;0.30;0.30;;;;;;;18.19;100.00;98012.16;5033866;28;20447;-85
2023/07/28 06:47:10;;;;;;;0.30;0.30;;;;;;;18.10;100.00;97942.25;5015134;28;20053;-85
2023/07/28 06:49:37;;;;;;;0.30;0.30;;;;;;;17.99;100.00;97928.13;5032614;28;20042;-85
2023/07/28 06:52:05;;;;;;;0.30;0.30;;;;;;;17.93;100.00;97888.47;5047784;28;20115;-86
2023/07/28 06:54:33;;;;;;;0.30;0.30;;;;;;;17.88;100.00;97853.94;5033430;28;20562;-85
2023/07/28 06:57:00;;;;;;;0.30;0.30;;;;;;;17.84;100.00;97854.91;5032695;28;20049;-84
2023/07/28 06:59:28;;;;;;;0.30;0.30;;;;;;;17.89;100.00;97836.44;5014844;28;20053;-85
2023/07/28 07:01:54;;;;;;;0.30;0.30;;;;;;;17.90;100.00;97853.59;5032833;28;20054;-84
2023/07/28 07:04:22;;;;;;;0.30;0.30;;;;;;;17.90;100.00;97779.91;5032611;28;20096;-85
2023/07/28 07:06:49;;;;;;;0.30;0.30;;;;;;;17.91;100.00;97798.72;5031420;28;20085;-85
2023/07/28 07:09:16;;;;;;;0.30;0.30;;;;;;;17.88;100.00;97772.06;5032532;28;20459;-85
2023/07/28 07:11:43;;;;;;;0.30;0.30;;;;;;;17.90;100.00;97785.38;4998730;28;20081;-85
2023/07/28 07:14:14;;;;;;;0.30;0.30;;;;;;;18.02;100.00;97762.91;5031028;28;20046;-84
2023/07/28 07:16:41;;;;;;;0.30;0.30;;;;;;;18.13;100.00;97740.41;5032626;28;20072;-84
2023/07/28 07:19:08;;;;;;;0.30;0.30;;;;;;;18.19;100.00;97760.13;5032183;28;20050;-85
2023/07/28 07:21:35;;;;;;;0.30;0.30;;;;;;;18.25;100.00;97793.53;5037756;28;20095;-85
2023/07/28 07:24:04;;;;;;;0.30;0.30;;;;;;;18.32;100.00;97802.03;5035727;28;20053;-81
2023/07/28 07:26:33;;;;;;;0.30;0.30;;;;;;;18.34;100.00;97819.69;5033414;28;20144;-82
2023/07/28 07:29:01;;;;;;;0.30;0.30;;;;;;;18.27;100.00;97854.88;5034970;28;20100;-86
2023/07/28 07:31:28;;;;;;;0.30;0.30;;;;;;;18.21;100.00;97830.81;5038631;28;20077;-85
2023/07/28 07:33:55;;;;;;;0.30;0.30;;;;;;;18.32;100.00;97824.69;5051230;28;20135;-84
2023/07/28 07:36:22;;;;;;;0.30;0.30;;;;;;;18.34;100.00;97811.50;5040066;28;20076;-85
2023/07/28 07:38:52;;;;;;;0.30;0.30;;;;;;;18.47;100.00;97814.38;5040132;28;20484;-83
2023/07/28 07:41:21;;;;;;;0.30;0.30;;;;;;;18.58;100.00;97843.78;5033483;28;20099;-84
2023/07/28 07:43:53;;;;;;;0.30;0.30;;;;;;;18.51;100.00;97831.72;5026633;28;20042;-83
2023/07/28 07:46:20;;;;;;;0.30;0.30;;;;;;;18.60;100.00;97835.22;5031680;28;20175;-83
2023/07/28 07:48:47;;;;;;;0.30;0.30;;;;;;;18.54;100.00;97844.75;5031717;28;20144;-83
2023/07/28 07:51:15;;;;;;;0.30;0.30;;;;;;;18.57;100.00;97835.88;5031720;28;20048;-83
2023/07/28 07:53:42;;;;;;;0.32;0.32;;;;;;;18.80;100.00;97834.56;5042658;28;20053;-83
2023/07/28 07:56:10;;;;;;;0.30;0.30;;;;;;;19.06;100.00;97847.31;5037735;28;20059;-83
2023/07/28 07:58:37;;;;;;;0.40;0.40;;;;;;;19.24;100.00;97837.09;5039083;28;20041;-82
2023/07/28 08:01:07;;;;;;;0.40;0.40;;;;;;;19.62;100.00;97849.91;4685142;28;10000474;-83
2023/07/28 08:03:36;;;;;;;0.40;0.40;;;;;;;19.96;100.00;97837.16;5035476;28;20758;-84
2023/07/28 08:06:03;;;;;;;0.40;0.40;;;;;;;20.22;100.00;97854.16;5031808;28;20076;-83
2023/07/28 08:08:31;;;;;;;0.40;0.40;;;;;;;20.20;100.00;97837.25;5027971;28;20053;-82
2023/07/28 08:10:58;;;;;;;0.40;0.40;;;;;;;20.71;100.00;97832.44;5019973;28;20152;-83
2023/07/28 08:13:28;;;;;;;0.40;0.40;;;;;;;20.96;100.00;97835.19;5042220;28;20152;-80
2023/07/28 08:15:55;;;;;;;0.40;0.40;;;;;;;21.20;100.00;97821.50;5034390;28;20136;-83
2023/07/28 08:18:23;;;;;;;0.40;0.40;;;;;;;21.17;100.00;97827.69;5030390;28;20045;-82
2023/07/28 08:20:51;;;;;;;0.50;0.50;;;;;;;21.32;100.00;97828.94;5027711;28;20603;-84
2023/07/28 08:23:18;;;;;;;0.40;0.40;;;;;;;21.51;98.16;97822.09;5028375;28;20053;-82
2023/07/28 08:25:48;;;;;;;0.30;0.30;;;;;;;21.84;97.54;97839.16;5030418;28;20049;-82
2023/07/28 08:28:16;;;;;;;0.30;0.30;;;;;;;21.83;94.99;97848.56;5028489;28;20103;-82
2023/07/28 08:30:44;;;;;;;0.50;0.50;;;;;;;22.33;93.01;97851.19;5033746;28;20057;-82
2023/07/28 08:33:11;;;;;;;0.40;0.40;;;;;;;22.75;90.33;97864.50;5027243;28;20557;-82
2023/07/28 08:35:39;;;;;;;0.40;0.40;;;;;;;22.87;89.89;97851.47;5033067;28;20053;-81
2023/07/28 08:38:08;;;;;;;0.30;0.30;;;;;;;22.79;88.20;97857.94;5030638;28;20049;-82
2023/07/28 08:40:35;;;;;;;0.20;0.20;;;;;;;22.43;88.15;97859.75;5028410;28;20045;-82
2023/07/28 08:43:02;;;;;;;0.20;0.20;;;;;;;21.86;91.32;97872.59;5019590;28;20049;-84
2023/07/28 08:45:35;;;;;;;0.30;0.30;;;;;;;21.47;92.02;97854.94;5037773;28;20140;-84
2023/07/28 08:48:04;;;;;;;0.30;0.30;;;;;;;21.27;93.60;97855.78;5034414;28;20060;-83
2023/07/28 08:50:33;;;;;;;0.30;0.30;;;;;;;21.08;95.97;97856.34;5028493;28;20451;-84
2023/07/28 08:53:00;;;;;;;0.30;0.30;;;;;;;21.07;97.06;97849.28;5027053;28;20093;-82
2023/07/28 08:55:27;;;;;;;0.30;0.30;;;;;;;21.68;95.95;97867.72;5042060;28;20053;-82
2023/07/28 08:57:55;;;;;;;0.40;0.40;;;;;;;22.21;92.97;97872.06;5040245;28;20056;-85
2023/07/28 09:00:24;;;;;;;0.35;0.35;;;;;;;22.49;90.35;97863.81;5004526;28;20041;-84
2023/07/28 09:02:52;;;;;;;0.30;0.30;;;;;;;22.98;86.73;97873.78;5010384;28;20094;-83
2023/07/28 09:05:21;;;;;;;0.30;0.30;;;;;;;22.63;88.66;97879.91;4987088;28;20389;-83
2023/07/28 09:08:17;;;;;;;0.30;0.30;;;;;;;22.10;87.61;97890.16;5019020;28;20057;-84
2023/07/28 09:11:03;;;;;;;0.20;0.20;;;;;;;21.74;89.15;97910.25;5004484;28;20060;-82
2023/07/28 09:13:41;;;;;;;0.30;0.30;;;;;;;21.59;90.42;97918.03;5032318;28;20048;-84
2023/07/28 09:16:18;;;;;;;0.30;0.30;;;;;;;21.64;90.42;97923.28;5029715;28;20056;-83
2023/07/28 09:18:47;;;;;;;0.30;0.30;;;;;;;21.51;91.06;97929.94;5029319;28;20148;-84
2023/07/28 09:21:20;;;;;;;0.30;0.30;;;;;;;21.36;92.50;97942.34;5035149;28;20049;-83
2023/07/28 09:23:57;;;;;;;0.20;0.20;;;;;;;21.16;93.04;97962.44;5030214;28;20080;-83
2023/07/28 09:26:51;;;;;;;0.20;0.20;;;;;;;20.94;95.63;97971.84;5028453;28;20061;-83
2023/07/28 09:29:20;;;;;;;0.20;0.20;;;;;;;20.85;96.75;97969.22;5029410;28;20471;-84
2023/07/28 09:32:13;;;;;;;0.20;0.20;;;;;;;20.74;99.06;97959.81;5012420;28;20153;-82
2023/07/28 09:34:43;;;;;;;0.20;0.20;;;;;;;20.60;99.86;97956.53;5029620;28;20053;-84
2023/07/28 09:37:11;;;;;;;0.30;0.30;;;;;;;20.54;100.00;97934.81;5044544;28;20054;-82
2023/07/28 09:39:42;;;;;;;0.30;0.30;;;;;;;20.52;100.00;97922.56;5028866;28;20048;-84
2023/07/28 09:42:16;;;;;;;0.20;0.20;;;;;;;20.60;100.00;97929.94;5028290;28;20500;-84
2023/07/28 09:44:44;;;;;;;0.20;0.20;;;;;;;20.58;100.00;97948.63;5029522;28;20141;-84
2023/07/28 09:47:11;;;;;;;0.28;0.28;;;;;;;20.56;100.00;97956.41;5027782;28;20057;-83
2023/07/28 09:49:48;;;;;;;0.20;0.20;;;;;;;20.53;99.88;97943.34;5028421;28;20056;-84
2023/07/28 09:52:17;;;;;;;0.20;0.20;;;;;;;20.59;100.00;97938.50;5027871;28;20451;-84
2023/07/28 09:54:49;;;;;;;0.20;0.20;;;;;;;20.55;98.83;97928.19;5011959;28;20080;-83
2023/07/28 09:57:20;;;;;;;0.20;0.20;;;;;;;20.49;99.38;97928.72;5027734;28;20041;-83
2023/07/28 09:59:48;;;;;;;0.20;0.20;;;;;;;20.56;99.18;97939.97;5027973;28;20443;-82
2023/07/28 10:02:15;;;;;;;0.30;0.30;;;;;;;20.51;99.40;97964.81;5027799;28;20065;-84
2023/07/28 10:04:43;;;;;;;0.30;0.30;;;;;;;20.53;100.00;97963.34;5047344;28;20071;-84
2023/07/28 10:07:10;;;;;;;0.20;0.20;;;;;;;20.49;100.00;97961.59;5032534;28;20551;-84
2023/07/28 10:09:37;;;;;;;0.20;0.20;;;;;;;20.45;100.00;97961.47;5033478;28;20045;-83
2023/07/28 10:12:05;;;;;;;0.20;0.20;;;;;;;20.46;100.00;97968.56;5031376;28;20392;-84
2023/07/28 10:14:39;;;;;;;0.20;0.20;;;;;;;20.45;100.00;97969.69;5032921;28;20049;-84
2023/07/28 10:17:15;;;;;;;0.30;0.30;;;;;;;20.41;100.00;97965.19;5033371;28;20056;-83
2023/07/28 10:19:43;;;;;;;0.30;0.30;;;;;;;20.29;100.00;97953.03;5045583;28;20052;-85
2023/07/28 10:22:11;;;;;;;0.30;0.30;;;;;;;20.28;100.00;97943.22;5038952;28;20107;-84
2023/07/28 10:25:01;;;;;;;0.30;0.30;;;;;;;20.30;100.00;97940.16;5040782;28;20135;-83
2023/07/28 10:27:31;;;;;;;0.30;0.30;;;;;;;20.32;100.00;97924.97;5039246;28;20053;-83
2023/07/28 10:29:59;;;;;;;0.30;0.30;;;;;;;20.45;100.00;97914.88;5034794;28;20076;-85
2023/07/28 10:32:28;;;;;;;0.30;0.30;;;;;;;20.55;100.00;97905.47;5044252;28;20041;-84
2023/07/28 10:35:00;;;;;;;0.30;0.30;;;;;;;20.59;100.00;97886.44;5039349;28;20462;-85
2023/07/28 10:37:29;;;;;;;0.30;0.30;;;;;;;20.56;100.00;97885.97;5043882;28;20049;-84
2023/07/28 10:40:24;;;;;;;0.30;0.30;;;;;;;20.57;100.00;97881.28;5032350;28;20299;-85
2023/07/28 10:42:52;;;;;;;0.30;0.30;;;;;;;20.59;100.00;97900.13;5032461;28;20057;-83
2023/07/28 10:45:22;;;;;;;0.30;0.30;;;;;;;20.61;100.00;97900.56;5020070;28;20099;-84
2023/07/28 10:47:50;;;;;;;0.30;0.30;;;;;;;20.65;100.00;97891.34;5037802;28;20142;-82
2023/07/28 10:50:18;;;;;;;0.30;0.30;;;;;;;20.66;100.00;97878.44;5039565;28;20077;-83
2023/07/28 10:52:46;;;;;;;0.30;0.30;;;;;;;20.65;100.00;97865.88;5023125;28;20456;-83
2023/07/28 10:55:14;;;;;;;0.30;0.30;;;;;;;20.55;100.00;97845.19;5025704;28;20431;-81
2023/07/28 10:57:43;;;;;;;0.30;0.30;;;;;;;20.46;100.00;97838.94;5048683;28;20041;-81
2023/07/28 11:00:14;;;;;;;0.30;0.30;;;;;;;20.40;100.00;97821.91;5042585;28;20049;-81
2023/07/28 11:02:43;;;;;;;0.30;0.30;;;;;;;20.44;100.00;97833.03;5037362;28;20053;-80
2023/07/28 11:05:13;;;;;;;0.30;0.30;;;;;;;20.50;100.00;97839.88;5038442;28;20115;-81
2023/07/28 11:07:43;;;;;;;0.30;0.30;;;;;;;20.42;99.23;97805.16;5049222;28;20045;-81
2023/07/28 11:10:17;;;;;;;0.30;0.30;;;;;;;20.33;98.61;97817.00;5052315;28;20057;-83
2023/07/28 11:12:46;;;;;;;0.30;0.30;;;;;;;20.32;97.93;97856.47;5061329;28;20079;-82
2023/07/28 11:15:14;;;;;;;0.30;0.30;;;;;;;20.32;97.88;97902.25;5047789;28;20492;-83
2023/07/28 11:17:47;;;;;;;0.20;0.20;;;;;;;20.35;97.99;97921.56;5042772;28;20215;-83
2023/07/28 11:20:19;;;;;;;0.30;0.30;;;;;;;20.32;97.46;97933.19;5034331;28;20456;-82
2023/07/28 11:23:08;;;;;;;0.30;0.30;;;;;;;20.34;97.45;97950.09;5016737;28;20050;-82
2023/07/28 11:25:38;;;;;;;0.30;0.30;;;;;;;20.36;97.84;97971.69;5036315;28;20045;-81
2023/07/28 11:28:05;;;;;;;0.30;0.30;;;;;;;20.35;97.02;97973.63;5031987;28;20064;-82
2023/07/28 11:30:37;;;;;;;0.30;0.30;;;;;;;20.40;97.75;97969.88;5035692;28;20542;-81
2023/07/28 11:33:09;;;;;;;0.30;0.30;;;;;;;20.41;97.36;97955.06;5037415;28;20053;-82
2023/07/28 11:35:39;;;;;;;0.30;0.30;;;;;;;20.45;96.56;97936.00;5038895;28;20049;-82
2023/07/28 11:38:10;;;;;;;0.30;0.30;;;;;;;20.44;96.44;97923.44;5038558;28;20053;-83